Time;durP1;ratioP1;P1;durP2;ratioP2;P2;SDS_P1;SDS_P2;PMS_P1;PMS_P2;Temp;Humidity;BMP_temperature;BMP_pressure;BME280_temperature;BME280_humidity;BME280_pressure;Samples;Min_cycle;Max_cycle;Signal;HPM_P1;HPM_P2
2022/05/23 00:00:06;;;;;;;;;10.67;7.67;;;;;19.72;57.91;99890.31;5034233;28;46207;-52
2022/05/23 00:02:32;;;;;;;;;4.33;4.00;;;;;19.73;57.97;99908.19;5032274;28;46167;-53
2022/05/23 00:04:57;;;;;;;;;7.00;5.33;;;;;19.70;58.19;99908.53;5035152;28;45738;-54
2022/05/23 00:07:30;;;;;;;;;7.00;7.00;;;;;19.70;58.40;99902.28;5035512;28;45523;-53
2022/05/23 00:09:56;;;;;;;;;6.00;6.00;;;;;19.67;58.30;99902.63;5032192;28;45790;-52
2022/05/23 00:12:22;;;;;;;;;6.00;6.00;;;;;19.71;58.21;99899.41;5018752;28;45655;-55
2022/05/23 00:14:49;;;;;;;;;6.00;5.00;;;;;19.74;58.18;99915.28;5017409;28;45498;-56
2022/05/23 00:17:14;;;;;;;;;7.33;7.33;;;;;19.77;58.10;99907.88;5019528;28;45276;-55
2022/05/23 00:19:40;;;;;;;;;7.67;6.00;;;;;19.76;58.12;99906.19;5027194;28;45402;-60
2022/05/23 00:22:06;;;;;;;;;6.00;4.00;;;;;19.77;57.85;99903.31;5021061;28;45417;-53
2022/05/23 00:24:32;;;;;;;;;8.67;6.33;;;;;19.78;58.07;99893.38;5031482;28;45417;-53
2022/05/23 00:26:57;;;;;;;;;5.00;5.00;;;;;19.77;57.90;99887.13;5020327;28;45367;-58
2022/05/23 00:29:23;;;;;;;;;6.00;6.00;;;;;19.76;58.07;99874.63;5036376;28;45612;-63
2022/05/23 00:37:18;;;;;;;;;7.67;7.00;;;;;19.75;58.28;99867.56;5019334;28;45447;-54
2022/05/23 00:39:43;;;;;;;;;6.00;6.00;;;;;19.74;58.21;99852.38;5035131;28;46122;-53
2022/05/23 00:44:58;;;;;;;;;5.00;5.00;;;;;19.76;58.17;99846.81;5039119;28;45722;-58
2022/05/23 00:47:27;;;;;;;;;7.00;7.00;;;;;19.75;58.44;99840.56;5024677;28;45602;-55
2022/05/23 00:49:53;;;;;;;;;6.00;6.00;;;;;19.73;58.09;99838.03;5019494;28;45466;-56
2022/05/23 00:52:26;;;;;;;;;6.67;6.33;;;;;19.69;58.21;99830.47;5036473;28;45416;-60
2022/05/23 00:54:56;;;;;;;;;6.00;6.00;;;;;19.70;58.45;99833.00;5037888;28;45502;-60
2022/05/23 00:57:27;;;;;;;;;7.33;6.00;;;;;19.71;58.38;99828.44;5037247;28;45665;-55
2022/05/23 00:59:52;;;;;;;;;6.00;5.00;;;;;19.71;58.27;99833.84;5035728;28;46036;-61
2022/05/23 01:02:20;;;;;;;;;5.00;5.00;;;;;19.70;58.02;99826.75;5021359;28;45484;-58
2022/05/23 01:04:47;;;;;;;;;7.33;6.00;;;;;19.71;57.78;99825.75;5030465;28;45414;-55
2022/05/23 01:07:13;;;;;;;;;7.00;6.00;;;;;19.69;58.20;99825.06;5038934;28;45605;-54
2022/05/23 01:09:39;;;;;;;;;6.00;6.00;;;;;19.67;58.43;99816.28;5021404;28;47756;-60
2022/05/23 01:12:05;;;;;;;;;5.33;5.00;;;;;19.70;58.14;99813.25;5036376;28;45508;-58
2022/05/23 01:14:57;;;;;;;;;5.33;5.33;;;;;19.69;58.02;99804.31;5049769;28;45461;-54
2022/05/23 01:17:25;;;;;;;;;5.00;4.33;;;;;19.69;58.27;99787.28;5018729;28;45552;-56
2022/05/23 01:19:51;;;;;;;;;5.00;5.00;;;;;19.70;57.93;99775.50;5033048;28;45985;-56
2022/05/23 01:22:38;;;;;;;;;5.33;5.33;;;;;19.68;57.90;99774.81;5038246;28;45400;-55
2022/05/23 01:25:28;;;;;;;;;5.00;5.00;;;;;19.68;58.55;99774.81;5036257;28;45371;-55
2022/05/23 01:27:54;;;;;;;;;5.67;5.67;;;;;19.65;58.58;99756.25;5038360;28;45571;-56
2022/05/23 01:30:20;;;;;;;;;5.67;5.67;;;;;19.58;58.75;99744.44;5023040;28;48004;-54
2022/05/23 01:32:45;;;;;;;;;7.00;5.00;;;;;19.54;59.04;99737.66;5038597;28;45362;-58
2022/05/23 01:35:12;;;;;;;;;5.33;5.33;;;;;19.55;58.94;99739.38;5024464;28;45596;-57
2022/05/23 01:37:38;;;;;;;;;3.00;3.00;;;;;19.51;58.69;99719.09;5016339;28;45449;-58
2022/05/23 01:40:08;;;;;;;;;5.00;4.67;;;;;19.52;59.43;99726.16;5026256;28;47878;-60
2022/05/23 01:42:34;;;;;;;;;7.33;5.33;;;;;19.48;59.21;99722.13;5036824;28;45322;-54
2022/05/23 01:44:59;;;;;;;;;5.67;5.67;;;;;19.43;59.32;99720.75;5045070;28;45347;-58
2022/05/23 01:47:24;;;;;;;;;6.00;6.00;;;;;19.40;59.50;99713.00;5029403;28;45589;-56
2022/05/23 01:49:50;;;;;;;;;6.67;5.00;;;;;19.38;59.44;99704.22;5017406;28;46991;-57
2022/05/23 01:52:16;;;;;;;;;7.00;6.00;;;;;19.37;59.73;99696.28;5029718;28;45556;-53
2022/05/23 01:54:41;;;;;;;;;5.67;5.33;;;;;19.27;60.10;99685.69;5018226;28;45395;-56
2022/05/23 01:57:10;;;;;;;;;4.00;4.00;;;;;19.21;60.31;99674.69;5032961;28;45751;-56
2022/05/23 02:02:20;;;;;;;;;5.00;5.00;;;;;19.10;60.56;99673.13;5017682;28;45344;-58
2022/05/23 02:04:45;;;;;;;;;5.00;5.00;;;;;19.11;60.72;99686.44;5017127;28;45255;-62
2022/05/23 02:07:12;;;;;;;;;5.00;5.00;;;;;19.07;60.84;99670.75;5034153;28;45665;-59
2022/05/23 02:09:38;;;;;;;;;6.00;6.00;;;;;19.09;60.89;99668.75;5037332;28;45265;-56
2022/05/23 02:12:05;;;;;;;;;5.67;5.67;;;;;19.04;60.68;99661.16;5033543;28;45480;-58
2022/05/23 02:14:31;;;;;;;;;6.00;6.00;;;;;19.01;61.31;99657.94;5034202;28;45441;-59
2022/05/23 02:16:57;;;;;;;;;4.00;4.00;;;;;18.98;60.97;99664.50;5035668;28;45400;-55
2022/05/23 02:19:22;;;;;;;;;6.67;6.00;;;;;18.95;61.12;99681.00;5035690;28;45313;-58
2022/05/23 02:21:47;;;;;;;;;6.33;4.67;;;;;18.95;61.02;99682.84;5022583;28;45578;-58
2022/05/23 02:24:13;;;;;;;;;6.33;5.00;;;;;18.95;61.35;99696.31;5037352;28;45362;-53
2022/05/23 02:26:38;;;;;;;;;5.33;5.33;;;;;18.94;61.37;99694.63;5022401;28;45431;-54
2022/05/23 02:29:05;;;;;;;;;5.00;4.33;;;;;18.96;61.15;99695.31;5017396;28;45572;-56
2022/05/23 02:31:31;;;;;;;;;6.67;5.00;;;;;18.97;61.20;99694.28;5016495;28;45370;-55
2022/05/23 02:33:57;;;;;;;;;7.33;6.00;;;;;18.94;61.47;99702.72;5017360;28;45328;-58
2022/05/23 02:36:22;;;;;;;;;5.00;5.00;;;;;18.96;60.86;99698.84;5016728;28;45582;-57
2022/05/23 02:38:48;;;;;;;;;4.00;3.00;;;;;18.92;61.42;99700.19;5025529;28;46120;-56
2022/05/23 02:41:13;;;;;;;;;5.00;5.00;;;;;18.89;61.30;99691.59;5026912;28;45282;-59
2022/05/23 02:43:38;;;;;;;;;6.67;6.00;;;;;18.91;61.39;99685.03;5034864;28;45841;-61
2022/05/23 02:46:04;;;;;;;;;5.00;5.00;;;;;18.92;61.16;99686.72;5037280;28;45228;-59
2022/05/23 02:48:30;;;;;;;;;5.00;5.00;;;;;18.91;61.25;99695.78;5030628;28;47118;-60
2022/05/23 02:50:55;;;;;;;;;5.00;5.00;;;;;18.85;61.29;99693.72;5018366;28;45453;-57
2022/05/23 02:53:21;;;;;;;;;3.00;3.00;;;;;18.79;61.19;99691.69;5015930;28;45438;-58
2022/05/23 02:55:46;;;;;;;;;6.33;5.33;;;;;18.88;60.99;99695.25;5024189;28;45308;-63
2022/05/23 02:58:12;;;;;;;;;6.00;5.00;;;;;18.86;61.63;99704.34;5036769;28;45305;-57
2022/05/23 03:00:38;;;;;;;;;6.00;5.00;;;;;18.86;61.28;99695.41;5035728;28;45495;-53
2022/05/23 03:03:06;;;;;;;;;11.00;5.00;;;;;18.83;61.40;99693.06;5036992;28;45444;-53
2022/05/23 03:05:38;;;;;;;;;5.33;5.33;;;;;18.84;61.43;99689.34;5018437;28;45561;-57
2022/05/23 03:08:04;;;;;;;;;5.67;5.67;;;;;18.85;61.60;99689.19;5017156;28;45428;-56
2022/05/23 03:10:30;;;;;;;;;7.33;6.00;;;;;18.91;61.30;99695.78;5033791;28;45401;-53
2022/05/23 03:12:55;;;;;;;;;8.00;4.00;;;;;18.95;61.35;99707.94;5018298;28;45386;-53
2022/05/23 03:15:21;;;;;;;;;7.67;6.00;;;;;19.01;60.97;99707.31;5017259;28;45622;-53
2022/05/23 03:17:47;;;;;;;;;6.00;5.67;;;;;19.04;61.18;99717.75;5026868;28;46842;-59
2022/05/23 03:20:13;;;;;;;;;4.00;4.00;;;;;19.05;61.00;99718.59;5035302;28;45338;-58
2022/05/23 03:28:07;;;;;;;;;4.67;4.67;;;;;19.11;60.55;99691.81;5031276;28;45235;-60
2022/05/23 03:30:34;;;;;;;;;5.00;5.00;;;;;19.10;60.66;99684.75;5009964;28;45521;-58
2022/05/23 03:32:59;;;;;;;;;4.00;4.00;;;;;19.12;60.90;99676.50;5020695;28;45379;-64
2022/05/23 03:35:29;;;;;;;;;4.00;4.00;;;;;19.08;60.96;99664.38;5016715;28;45430;-56
2022/05/23 03:37:56;;;;;;;;;5.00;5.00;;;;;19.10;61.00;99646.19;5016886;28;45356;-59
2022/05/23 03:40:22;;;;;;;;;6.00;5.00;;;;;19.10;60.70;99635.41;5035190;28;45362;-60
2022/05/23 03:42:47;;;;;;;;;7.67;5.00;;;;;19.15;61.07;99638.47;5034814;28;45430;-62
2022/05/23 03:45:13;;;;;;;;;5.00;5.00;;;;;19.12;60.75;99633.38;5032866;28;45944;-59
2022/05/23 03:47:39;;;;;;;;;8.00;5.33;;;;;19.13;60.97;99629.66;5034489;28;46121;-60
2022/05/23 03:50:05;;;;;;;;;6.00;6.00;;;;;19.15;61.26;99638.47;5029581;28;45500;-58
2022/05/23 03:52:31;;;;;;;;;7.33;7.00;;;;;19.14;61.38;99631.34;5036222;28;45386;-65
2022/05/23 03:54:57;;;;;;;;;6.67;6.67;;;;;19.08;61.10;99643.66;5035346;28;45442;-57
2022/05/23 03:57:23;;;;;;;;;6.67;6.67;;;;;19.12;61.51;99646.84;5036322;28;46006;-61
2022/05/23 03:59:49;;;;;;;;;7.00;7.00;;;;;19.05;61.77;99643.13;5020685;28;45778;-59
2022/05/23 04:02:15;;;;;;;;;7.67;7.33;;;;;18.98;61.56;99632.16;5016364;28;45293;-60
2022/05/23 04:04:40;;;;;;;;;7.00;7.00;;;;;19.03;61.75;99645.16;5035429;28;45162;-58
2022/05/23 04:07:07;;;;;;;;;8.33;5.00;;;;;19.02;61.56;99638.09;5029228;28;45228;-56
2022/05/23 04:09:32;;;;;;;;;7.00;7.00;;;;;19.00;61.92;99632.84;5016583;28;45236;-54
2022/05/23 04:11:58;;;;;;;;;8.67;6.00;;;;;18.96;61.73;99617.16;5035824;28;45233;-54
2022/05/23 04:14:25;;;;;;;;;5.67;5.67;;;;;18.98;61.72;99605.22;5035744;28;45521;-60
2022/05/23 04:16:52;;;;;;;;;10.00;8.00;;;;;19.01;61.60;99588.75;5031399;28;46532;-53
2022/05/23 04:19:18;;;;;;;;;9.33;7.67;;;;;19.00;61.56;99592.41;5026750;28;45344;-55
2022/05/23 04:21:45;;;;;;;;;3.67;3.33;;;;;19.02;61.37;99600.38;5018501;28;45445;-57
2022/05/23 04:24:13;;;;;;;;;6.00;6.00;;;;;19.05;61.58;99597.34;5017872;28;45553;-60
2022/05/23 04:26:39;;;;;;;;;4.00;4.00;;;;;19.05;61.50;99589.25;5033266;28;45351;-60
2022/05/23 04:29:06;;;;;;;;;7.67;7.67;;;;;19.06;61.74;99577.47;5026070;28;45405;-56
2022/05/23 04:31:33;;;;;;;;;10.00;7.00;;;;;19.09;61.96;99574.44;5025196;28;45438;-57
2022/05/23 04:36:43;;;;;;;;;3.67;3.00;;;;;19.09;63.43;99545.63;5015814;28;45694;-61
2022/05/23 04:39:08;;;;;;;;;8.00;8.00;;;;;19.06;63.48;99537.03;5014024;28;45327;-58
2022/05/23 04:41:34;;;;;;;;;8.00;8.00;;;;;19.09;64.12;99542.94;5017246;28;45563;-59
2022/05/23 04:44:00;;;;;;;;;6.67;6.67;;;;;19.06;64.50;99547.81;5015710;28;45579;-55
2022/05/23 04:46:28;;;;;;;;;8.67;7.33;;;;;19.00;65.29;99565.47;5031962;28;45867;-57
2022/05/23 04:51:39;;;;;;;;;4.67;4.67;;;;;19.06;65.34;99563.97;5031151;28;45339;-58
2022/05/23 04:54:06;;;;;;;;;5.33;4.67;;;;;19.03;64.24;99581.34;5033249;28;45334;-57
2022/05/23 04:56:31;;;;;;;;;6.00;6.00;;;;;19.04;64.57;99563.31;5030624;28;47764;-56
2022/05/23 04:58:58;;;;;;;;;5.33;5.33;;;;;19.04;65.14;99556.06;5033868;28;45733;-56
2022/05/23 05:01:24;;;;;;;;;6.00;6.00;;;;;19.07;64.50;99569.19;5022815;28;46702;-54
2022/05/23 05:03:50;;;;;;;;;6.00;6.00;;;;;19.09;64.99;99564.47;5017180;28;45375;-55
2022/05/23 05:06:16;;;;;;;;;6.00;6.00;;;;;19.11;64.87;99564.31;5037059;28;45563;-55
2022/05/23 05:08:42;;;;;;;;;7.00;6.00;;;;;19.12;65.01;99552.53;5032047;28;45449;-56
2022/05/23 05:11:07;;;;;;;;;6.00;6.00;;;;;19.10;64.95;99541.06;5035699;28;45527;-67
2022/05/23 05:13:35;;;;;;;;;5.00;5.00;;;;;19.04;64.53;99528.28;5038727;28;45239;-68
2022/05/23 05:16:02;;;;;;;;;6.00;6.00;;;;;19.09;65.40;99525.91;5043964;28;45421;-63
2022/05/23 05:18:28;;;;;;;;;6.00;6.00;;;;;19.08;65.24;99510.75;5035499;28;45319;-61
2022/05/23 05:20:54;;;;;;;;;10.00;9.67;;;;;19.04;66.36;99526.44;5029799;28;45493;-62
2022/05/23 05:23:20;;;;;;;;;12.67;12.67;;;;;18.88;66.67;99526.41;5038031;28;45637;-62
2022/05/23 05:25:46;;;;;;;;;14.00;14.00;;;;;18.86;65.96;99515.75;5035153;28;45465;-60
2022/05/23 05:28:12;;;;;;;;;12.00;12.00;;;;;18.90;65.99;99515.47;5036205;28;45679;-61
2022/05/23 05:30:44;;;;;;;;;16.00;13.00;;;;;18.93;66.11;99501.66;5036734;28;45495;-62
2022/05/23 05:33:15;;;;;;;;;16.33;15.00;;;;;18.93;65.62;99507.88;5037524;28;45445;-61
2022/05/23 05:35:50;;;;;;;;;13.33;11.67;;;;;18.94;65.51;99511.41;5028646;28;45392;-63
2022/05/23 05:38:30;;;;;;;;;11.33;11.00;;;;;18.96;65.00;99504.84;5017165;28;45360;-62
2022/05/23 05:41:04;;;;;;;;;9.33;9.33;;;;;19.01;64.43;99491.75;5018714;28;45526;-64
2022/05/23 05:43:37;;;;;;;;;14.00;12.00;;;;;19.04;64.80;99512.94;5019110;28;45603;-57
2022/05/23 05:46:10;;;;;;;;;10.00;10.00;;;;;19.00;64.41;99543.06;5045696;28;47020;-62
2022/05/23 05:48:40;;;;;;;;;12.33;12.33;;;;;18.99;64.91;99554.84;5017421;28;45466;-60
2022/05/23 05:51:08;;;;;;;;;16.67;13.00;;;;;19.00;64.57;99559.25;5017982;28;45344;-59
2022/05/23 05:53:33;;;;;;;;;12.00;11.33;;;;;19.02;64.99;99538.38;5027638;28;47114;-62
2022/05/23 05:56:04;;;;;;;;;15.00;15.00;;;;;19.05;65.58;99530.81;5026269;28;45390;-60
2022/05/23 05:58:31;;;;;;;;;19.33;14.67;;;;;19.10;65.25;99522.22;5018685;28;45890;-60
2022/05/23 06:00:57;;;;;;;;;12.33;10.67;;;;;19.15;65.35;99517.19;5016698;28;45257;-61
2022/05/23 06:03:22;;;;;;;;;10.67;10.67;;;;;19.17;65.02;99495.44;5017183;28;45540;-62
2022/05/23 06:11:29;;;;;;;;;3.67;3.67;;;;;19.51;64.87;99519.53;5020163;28;45608;-61
2022/05/23 06:13:59;;;;;;;;;7.33;7.33;;;;;19.49;64.86;99525.09;5018051;28;45364;-61
2022/05/23 06:16:27;;;;;;;;;8.00;8.00;;;;;19.48;65.46;99538.75;5025227;28;45417;-61
2022/05/23 06:18:53;;;;;;;;;10.67;9.00;;;;;19.47;64.75;99531.66;5035145;28;45363;-60
2022/05/23 06:21:19;;;;;;;;;7.33;7.33;;;;;19.49;64.63;99548.53;5036648;28;45314;-64
2022/05/23 06:23:48;;;;;;;;;10.33;7.67;;;;;19.48;65.35;99542.28;5022055;28;45384;-61
2022/05/23 06:26:15;;;;;;;;;18.67;11.00;;;;;19.50;65.14;99534.03;5017173;28;45348;-60
2022/05/23 06:28:42;;;;;;;;;10.00;9.00;;;;;19.53;65.17;99525.59;5016589;28;45616;-61
2022/05/23 06:31:08;;;;;;;;;8.00;7.00;;;;;19.55;64.33;99510.97;5040306;28;45472;-61
2022/05/23 06:33:33;;;;;;;;;9.00;9.00;;;;;19.60;64.84;99496.97;5018196;28;46216;-60
2022/05/23 06:35:59;;;;;;;;;6.67;6.67;;;;;19.68;64.51;99510.47;5031137;28;46497;-59
2022/05/23 06:38:25;;;;;;;;;9.00;9.00;;;;;19.60;65.17;99487.03;5025852;28;45410;-60
2022/05/23 06:40:52;;;;;;;;;6.33;6.33;;;;;19.63;65.05;99500.16;5020489;28;45542;-60
2022/05/23 06:43:19;;;;;;;;;9.00;8.00;;;;;19.61;65.31;99474.38;5037459;28;45459;-61
2022/05/23 06:45:46;;;;;;;;;11.00;8.33;;;;;19.63;65.93;99469.66;5027730;28;45537;-63
2022/05/23 06:48:12;;;;;;;;;5.67;4.00;;;;;19.62;65.59;99458.03;5019079;28;45561;-61
2022/05/23 06:50:37;;;;;;;;;8.33;8.33;;;;;19.73;65.35;99481.09;5029217;28;45411;-61
2022/05/23 06:53:03;;;;;;;;;6.67;6.67;;;;;19.77;65.25;99481.59;5017070;28;45593;-61
2022/05/23 06:55:30;;;;;;;;;12.33;9.33;;;;;19.79;65.43;99458.81;5027578;28;47049;-60
2022/05/23 06:57:55;;;;;;;;;8.00;8.00;;;;;19.83;65.66;99462.88;5026235;28;45446;-62
2022/05/23 07:00:21;;;;;;;;;13.67;9.00;;;;;19.77;65.11;99450.06;5028433;28;45405;-64
2022/05/23 07:02:47;;;;;;;;;11.00;7.00;;;;;19.84;65.22;99464.56;5017272;28;45739;-55
2022/05/23 07:13:26;;;;;;;;;9.33;7.00;;;;;19.82;65.79;99447.72;5028647;28;45461;-56
2022/05/23 07:15:53;;;;;;;;;8.67;8.67;;;;;19.84;65.84;99467.25;5023293;28;45475;-57
2022/05/23 07:18:19;;;;;;;;;9.67;8.00;;;;;19.85;65.95;99468.94;5019118;28;45515;-57
2022/05/23 07:20:45;;;;;;;;;8.33;8.33;;;;;19.82;66.07;99469.28;5018420;28;46720;-55
2022/05/23 07:23:11;;;;;;;;;8.00;8.00;;;;;19.87;66.37;99475.00;5015657;28;46772;-58
2022/05/23 07:25:37;;;;;;;;;13.33;9.67;;;;;19.90;66.50;99469.25;5022711;28;46082;-70
2022/05/23 07:28:04;;;;;;;;;9.33;9.33;;;;;19.92;65.70;99467.25;5033728;28;45323;-67
2022/05/23 07:30:32;;;;;;;;;8.00;8.00;;;;;19.89;66.31;99474.81;5018833;28;46777;-65
2022/05/23 07:32:59;;;;;;;;;9.33;8.00;;;;;19.88;66.51;99473.16;5028357;28;45681;-63
2022/05/23 07:35:26;;;;;;;;;11.33;9.67;;;;;19.91;66.48;99475.50;5043887;28;46076;-62
2022/05/23 07:37:52;;;;;;;;;14.00;10.33;;;;;19.85;66.93;99479.72;5015955;28;45266;-62
2022/05/23 07:40:18;;;;;;;;;13.33;11.00;;;;;19.86;67.01;99476.03;5017497;28;45223;-61
2022/05/23 07:42:44;;;;;;;;;9.00;9.00;;;;;19.91;66.73;99479.03;5025377;28;45549;-62
2022/05/23 07:45:10;;;;;;;;;10.00;10.00;;;;;19.95;67.03;99485.78;5025522;28;45595;-61
2022/05/23 07:47:36;;;;;;;;;13.00;12.00;;;;;20.01;66.27;99486.94;5018199;28;45951;-62
2022/05/23 07:50:03;;;;;;;;;10.33;10.33;;;;;20.03;65.49;99474.94;5022152;28;45535;-61
2022/05/23 07:52:29;;;;;;;;;13.33;13.00;;;;;20.06;66.51;99443.25;5025255;28;45566;-62
2022/05/23 08:00:32;;;;;;;;;13.33;12.33;;;;;20.77;65.36;99388.19;5014742;28;45318;-63
2022/05/23 08:03:18;;;;;;;;;12.00;12.00;;;;;20.84;64.74;99390.00;5021972;28;45629;-62
2022/05/23 08:05:44;;;;;;;;;12.33;11.33;;;;;21.05;63.81;99404.66;5016167;28;46021;-64
2022/05/23 08:08:11;;;;;;;;;9.67;9.67;;;;;21.09;63.65;99414.94;5029266;28;45450;-60
2022/05/23 08:10:37;;;;;;;;;12.33;12.33;;;;;21.17;64.25;99420.28;5021061;28;45521;-65
2022/05/23 08:13:08;;;;;;;;;10.33;9.33;;;;;21.20;65.32;99411.78;5017244;28;45241;-60
2022/05/23 08:15:39;;;;;;;;;13.00;13.00;;;;;21.24;66.97;99420.41;5019849;28;46283;-63
2022/05/23 08:18:06;;;;;;;;;14.00;11.00;;;;;21.23;66.06;99423.28;5022419;28;45722;-62
2022/05/23 08:20:33;;;;;;;;;12.00;12.00;;;;;21.19;66.36;99411.97;5022705;28;45508;-65
2022/05/23 08:22:59;;;;;;;;;12.00;12.00;;;;;21.16;67.34;99421.31;5027225;28;45524;-61
2022/05/23 08:25:25;;;;;;;;;14.00;13.00;;;;;20.97;67.97;99416.41;5015436;28;45494;-61
2022/05/23 08:27:53;;;;;;;;;14.67;14.67;;;;;20.79;72.69;99434.78;5016347;28;45466;-62
2022/05/23 08:30:19;;;;;;;;;14.67;14.67;;;;;20.61;72.78;99444.00;5018935;28;45369;-62
2022/05/23 08:32:44;;;;;;;;;14.33;13.00;;;;;20.42;73.06;99455.25;5030134;28;46735;-65
2022/05/23 08:35:10;;;;;;;;;10.67;10.67;;;;;20.22;70.95;99448.56;5017177;28;45699;-62
2022/05/23 08:37:37;;;;;;;;;14.67;13.67;;;;;20.12;71.11;99442.53;5030679;28;45478;-62
2022/05/23 08:40:03;;;;;;;;;14.00;14.00;;;;;20.07;71.13;99444.94;5027384;28;45483;-66
2022/05/23 08:42:48;;;;;;;;;16.00;13.67;;;;;20.05;70.96;99431.59;5019457;28;45383;-64
2022/05/23 08:45:34;;;;;;;;;12.67;12.67;;;;;19.99;70.72;99426.91;5025251;28;65110;-61
2022/05/23 08:48:07;;;;;;;;;12.00;12.00;;;;;19.93;71.12;99439.25;5045155;27;45457;-61
2022/05/23 08:50:41;;;;;;;;;13.33;13.33;;;;;19.89;71.16;99443.28;5035722;28;45390;-61
2022/05/23 08:53:23;;;;;;;;;11.33;11.33;;;;;19.77;70.85;99446.53;5031371;28;45564;-63
2022/05/23 08:55:57;;;;;;;;;18.67;12.00;;;;;19.64;70.80;99449.75;5032274;28;45681;-62
2022/05/23 08:58:27;;;;;;;;;14.00;13.00;;;;;19.60;70.47;99453.81;5032815;28;45334;-62
2022/05/23 09:00:58;;;;;;;;;16.00;16.00;;;;;19.60;70.28;99448.44;5017887;28;45721;-63
2022/05/23 09:03:53;;;;;;;;;12.00;12.00;;;;;19.56;70.09;99453.34;5017975;28;45660;-63
2022/05/23 09:06:31;;;;;;;;;15.33;15.33;;;;;19.56;69.02;99457.88;5018032;28;47413;-62
2022/05/23 09:09:02;;;;;;;;;13.33;11.67;;;;;19.57;69.35;99457.72;5018254;28;45464;-61
2022/05/23 09:11:35;;;;;;;;;13.00;13.00;;;;;19.65;69.96;99457.69;5020847;28;45318;-61
2022/05/23 09:14:02;;;;;;;;;13.67;13.67;;;;;19.68;69.17;99456.50;5025185;28;45366;-62
2022/05/23 09:16:32;;;;;;;;;13.67;12.00;;;;;19.72;68.31;99461.38;5040076;28;46204;-61
2022/05/23 09:19:10;;;;;;;;;14.33;11.67;;;;;19.75;68.09;99465.59;5029447;28;45352;-61
2022/05/23 09:24:19;;;;;;;;;15.00;13.00;;;;;19.76;68.25;99452.94;5026411;28;46265;-61
2022/05/23 09:26:46;;;;;;;;;17.00;13.33;;;;;19.79;67.86;99450.72;5017788;28;46028;-61
2022/05/23 09:29:12;;;;;;;;;13.67;13.67;;;;;19.80;68.33;99452.44;5023292;28;46183;-61
2022/05/23 09:31:54;;;;;;;;;15.33;11.33;;;;;19.90;68.06;99450.38;5018284;28;45548;-63
2022/05/23 09:34:32;;;;;;;;;15.00;13.67;;;;;19.91;67.77;99452.03;5037591;28;45620;-62
2022/05/23 09:37:00;;;;;;;;;16.67;13.33;;;;;19.98;67.94;99442.25;5039957;28;46207;-61
2022/05/23 09:39:29;;;;;;;;;11.67;11.67;;;;;20.05;67.29;99447.78;5017908;28;45424;-63
2022/05/23 09:47:45;;;;;;;;;16.00;15.00;;;;;20.20;66.05;99440.66;5017698;28;45390;-62
2022/05/23 09:50:12;;;;;;;;;15.67;15.67;;;;;20.22;65.66;99426.97;5021340;28;45505;-61
2022/05/23 09:52:48;;;;;;;;;19.67;18.33;;;;;20.36;64.67;99418.13;5030038;28;45429;-62
2022/05/23 09:55:33;;;;;;;;;18.00;13.00;;;;;20.50;63.39;99422.81;5032683;28;45373;-62
2022/05/23 09:58:06;;;;;;;;;21.67;21.00;;;;;20.56;63.21;99427.47;5048823;28;45339;-62
2022/05/23 10:00:54;;;;;;;;;21.00;18.00;;;;;20.64;62.90;99431.16;5017168;28;45315;-62
2022/05/23 10:03:22;;;;;;;;;19.67;18.00;;;;;20.64;62.73;99437.41;5024910;28;45511;-62
2022/05/23 10:06:07;;;;;;;;;22.67;17.33;;;;;20.60;62.44;99442.34;5026562;28;45304;-60
2022/05/23 10:08:43;;;;;;;;;16.67;16.67;;;;;20.52;62.37;99431.56;5017424;28;45517;-65
2022/05/23 10:11:18;;;;;;;;;21.67;18.33;;;;;20.52;62.70;99434.25;5016031;28;45438;-61
2022/05/23 10:13:53;;;;;;;;;19.00;17.00;;;;;20.51;62.45;99421.78;5017333;28;45494;-62
2022/05/23 10:16:32;;;;;;;;;21.67;20.00;;;;;20.51;62.63;99418.25;5025227;28;45391;-61
2022/05/23 10:19:06;;;;;;;;;24.00;22.00;;;;;20.53;62.58;99425.13;5020956;28;46995;-63
2022/05/23 10:21:38;;;;;;;;;18.67;18.67;;;;;20.48;63.01;99427.53;5025216;28;45609;-63
2022/05/23 10:24:18;;;;;;;;;18.00;18.00;;;;;20.48;62.94;99441.06;5021361;28;45355;-62
2022/05/23 10:27:03;;;;;;;;;21.67;20.67;;;;;20.45;62.87;99430.59;5015763;28;45324;-62
2022/05/23 10:29:53;;;;;;;;;21.67;20.67;;;;;20.43;63.09;99440.72;5016614;28;45626;-61
2022/05/23 10:32:36;;;;;;;;;25.67;23.33;;;;;20.45;63.05;99440.56;5027943;28;45540;-61
2022/05/23 10:35:09;;;;;;;;;22.67;21.33;;;;;20.41;62.50;99434.63;5035234;28;45473;-61
2022/05/23 10:37:40;;;;;;;;;23.33;23.33;;;;;20.30;62.81;99437.72;5017579;28;45362;-58
2022/05/23 10:43:06;;;;;;;;;20.33;20.33;;;;;20.15;63.31;99436.78;5031449;28;45548;-60
2022/05/23 10:45:46;;;;;;;;;24.00;22.67;;;;;20.03;64.13;99439.88;5023872;28;45312;-60
2022/05/23 10:48:41;;;;;;;;;24.67;21.33;;;;;19.97;64.90;99423.53;5016413;28;45313;-63
2022/05/23 10:51:39;;;;;;;;;26.67;23.00;;;;;19.90;65.33;99422.53;5030706;28;45444;-61
2022/05/23 10:54:38;;;;;;;;;24.00;22.33;;;;;19.87;65.89;99429.13;5024916;28;45584;-62
2022/05/23 10:57:10;;;;;;;;;27.00;23.67;;;;;19.82;66.24;99427.97;5024156;28;45383;-62
2022/05/23 11:00:01;;;;;;;;;24.67;22.00;;;;;19.79;67.00;99429.16;5034453;28;45256;-64
2022/05/23 11:02:38;;;;;;;;;26.00;24.33;;;;;19.76;67.06;99421.41;5026274;28;46519;-61
2022/05/23 11:05:06;;;;;;;;;23.00;23.00;;;;;19.77;67.64;99417.69;5028410;28;45788;-61
2022/05/23 11:07:48;;;;;;;;;27.00;27.00;;;;;19.67;66.73;99411.69;5029537;28;46049;-62
2022/05/23 11:10:32;;;;;;;;;26.67;26.33;;;;;19.65;65.95;99422.63;5026505;28;45428;-64
2022/05/23 11:13:35;;;;;;;;;31.00;26.67;;;;;19.40;66.22;99429.91;5033274;28;46476;-62
2022/05/23 11:16:06;;;;;;;;;26.00;24.33;;;;;19.40;66.56;99453.31;4996391;28;45483;-61
2022/05/23 11:18:58;;;;;;;;;28.33;25.00;;;;;19.29;66.86;99456.38;5024625;28;45628;-62
2022/05/23 11:21:43;;;;;;;;;25.00;23.33;;;;;19.20;67.52;99452.81;5038121;28;45588;-62
2022/05/23 11:24:20;;;;;;;;;24.00;21.67;;;;;19.07;68.35;99430.94;5024244;28;45955;-62
2022/05/23 11:26:50;;;;;;;;;27.00;25.67;;;;;19.12;68.60;99439.34;5017383;28;45400;-60
2022/05/23 11:34:57;;;;;;;;;27.00;27.00;;;;;19.04;70.72;99444.75;5033957;28;45536;-62
2022/05/23 11:37:43;;;;;;;;;28.00;28.00;;;;;18.96;70.81;99447.44;5034502;28;45355;-63
2022/05/23 11:40:33;;;;;;;;;25.67;23.00;;;;;18.97;71.53;99443.72;5036086;28;45274;-63
2022/05/23 11:43:03;;;;;;;;;30.33;25.67;;;;;19.13;70.85;99446.41;5017451;28;45341;-63
2022/05/23 11:48:35;;;;;;;;;28.00;25.67;;;;;19.59;70.67;99446.75;5037906;28;45749;-70
2022/05/23 11:51:12;;;;;;;;;29.00;27.33;;;;;19.78;70.64;99446.34;5034221;28;45373;-67
2022/05/23 11:53:43;;;;;;;;;29.50;23.00;;;;;19.82;69.23;99447.72;5016455;28;45729;-64
2022/05/23 11:56:11;;;;;;;;;25.33;23.67;;;;;19.78;69.18;99446.34;5049556;28;46527;-63
2022/05/23 11:58:36;;;;;;;;;24.67;23.33;;;;;19.70;69.35;99449.09;5033436;28;45531;-62
2022/05/23 12:01:10;;;;;;;;;24.67;24.67;;;;;19.54;68.88;99449.94;5035307;28;45386;-62
2022/05/23 12:03:49;;;;;;;;;24.00;23.00;;;;;19.41;69.55;99453.16;5030988;28;45437;-62
2022/05/23 12:06:16;;;;;;;;;25.00;24.00;;;;;19.29;69.88;99462.59;5020499;28;46027;-61
2022/05/23 12:08:58;;;;;;;;;22.67;21.00;;;;;19.09;70.78;99466.63;5026619;28;45436;-62
2022/05/23 12:11:30;;;;;;;;;26.00;24.33;;;;;18.89;70.73;99449.13;5036593;28;45479;-62
2022/05/23 12:14:12;;;;;;;;;29.67;24.67;;;;;18.79;72.03;99471.66;5021183;28;45483;-62
2022/05/23 12:16:41;;;;;;;;;26.00;22.33;;;;;18.68;72.64;99480.03;5026097;28;45620;-64
2022/05/23 12:19:14;;;;;;;;;24.67;23.67;;;;;18.56;71.87;99482.16;5030891;28;45553;-64
2022/05/23 12:21:45;;;;;;;;;23.33;22.00;;;;;18.45;72.05;99484.31;5038577;28;45398;-68
2022/05/23 12:24:23;;;;;;;;;24.33;22.67;;;;;18.41;71.22;99482.97;5032792;28;45487;-60
2022/05/23 12:26:53;;;;;;;;;27.67;23.33;;;;;18.27;71.86;99487.97;5031496;28;46220;-63
2022/05/23 12:29:34;;;;;;;;;23.67;21.33;;;;;18.31;71.96;99490.31;5039400;28;45735;-62
2022/05/23 12:32:24;;;;;;;;;24.33;23.00;;;;;18.38;72.03;99494.06;5024614;28;45516;-64
2022/05/23 12:34:52;;;;;;;;;19.00;19.00;;;;;18.36;72.41;99499.63;5024768;28;45467;-62
2022/05/23 12:37:29;;;;;;;;;22.00;21.33;;;;;18.31;72.63;99496.56;5038811;28;46028;-62
2022/05/23 12:40:10;;;;;;;;;19.00;19.00;;;;;18.35;73.18;99502.44;5039179;28;45232;-63